sensor_id;sensor_type;location;lat;lon;timestamp;P1;durP1;ratioP1;P2;durP2;ratioP2
3036;SDS011;1528;52.550;13.408;2023-04-16T00:02:39;31.47;;;29.57;;
3036;SDS011;1528;52.550;13.408;2023-04-16T00:05:25;33.80;;;31.80;;
3036;SDS011;1528;52.550;13.408;2023-04-16T00:08:11;29.07;;;27.37;;
3036;SDS011;1528;52.550;13.408;2023-04-16T00:10:58;34.27;;;32.37;;
3036;SDS011;1528;52.550;13.408;2023-04-16T00:13:43;32.67;;;30.67;;
3036;SDS011;1528;52.550;13.408;2023-04-16T00:16:29;33.47;;;31.47;;
3036;SDS011;1528;52.550;13.408;2023-04-16T00:19:15;29.83;;;27.90;;
3036;SDS011;1528;52.550;13.408;2023-04-16T00:22:01;32.30;;;30.33;;
3036;SDS011;1528;52.550;13.408;2023-04-16T00:24:47;30.93;;;29.03;;
3036;SDS011;1528;52.550;13.408;2023-04-16T00:27:34;35.20;;;33.10;;
3036;SDS011;1528;52.550;13.408;2023-04-16T00:30:21;36.93;;;34.70;;
3036;SDS011;1528;52.550;13.408;2023-04-16T00:33:06;38.57;;;36.17;;
3036;SDS011;1528;52.550;13.408;2023-04-16T00:35:52;36.93;;;34.83;;
3036;SDS011;1528;52.550;13.408;2023-04-16T00:38:38;43.20;;;40.53;;
3036;SDS011;1528;52.550;13.408;2023-04-16T00:41:29;38.20;;;36.03;;
3036;SDS011;1528;52.550;13.408;2023-04-16T00:44:16;38.70;;;36.37;;
3036;SDS011;1528;52.550;13.408;2023-04-16T00:47:01;38.53;;;36.23;;
3036;SDS011;1528;52.550;13.408;2023-04-16T00:49:47;42.47;;;40.23;;
3036;SDS011;1528;52.550;13.408;2023-04-16T00:52:33;38.13;;;35.83;;
3036;SDS011;1528;52.550;13.408;2023-04-16T00:55:19;39.13;;;37.03;;
3036;SDS011;1528;52.550;13.408;2023-04-16T00:58:04;37.37;;;35.07;;
3036;SDS011;1528;52.550;13.408;2023-04-16T01:00:51;39.03;;;36.83;;
3036;SDS011;1528;52.550;13.408;2023-04-16T01:03:37;37.77;;;35.57;;
3036;SDS011;1528;52.550;13.408;2023-04-16T01:06:24;37.40;;;35.10;;
3036;SDS011;1528;52.550;13.408;2023-04-16T01:09:10;38.00;;;35.80;;
3036;SDS011;1528;52.550;13.408;2023-04-16T01:11:56;34.73;;;32.73;;
3036;SDS011;1528;52.550;13.408;2023-04-16T01:14:41;34.20;;;32.00;;
3036;SDS011;1528;52.550;13.408;2023-04-16T01:17:28;36.47;;;34.23;;
3036;SDS011;1528;52.550;13.408;2023-04-16T01:20:14;36.13;;;33.93;;
3036;SDS011;1528;52.550;13.408;2023-04-16T01:23:01;38.83;;;36.77;;
3036;SDS011;1528;52.550;13.408;2023-04-16T01:25:46;41.30;;;39.17;;
3036;SDS011;1528;52.550;13.408;2023-04-16T01:28:32;36.83;;;34.73;;
3036;SDS011;1528;52.550;13.408;2023-04-16T01:31:17;36.17;;;34.00;;
3036;SDS011;1528;52.550;13.408;2023-04-16T01:34:03;41.07;;;38.90;;
3036;SDS011;1528;52.550;13.408;2023-04-16T01:36:48;42.93;;;40.73;;
3036;SDS011;1528;52.550;13.408;2023-04-16T01:39:36;38.07;;;36.07;;
3036;SDS011;1528;52.550;13.408;2023-04-16T01:42:21;40.60;;;38.30;;
3036;SDS011;1528;52.550;13.408;2023-04-16T01:45:07;36.87;;;34.70;;
3036;SDS011;1528;52.550;13.408;2023-04-16T01:47:53;36.47;;;34.20;;
3036;SDS011;1528;52.550;13.408;2023-04-16T01:50:39;37.33;;;35.07;;
3036;SDS011;1528;52.550;13.408;2023-04-16T01:53:25;35.57;;;33.47;;
3036;SDS011;1528;52.550;13.408;2023-04-16T01:56:12;38.23;;;35.93;;
3036;SDS011;1528;52.550;13.408;2023-04-16T01:58:57;40.50;;;38.30;;
3036;SDS011;1528;52.550;13.408;2023-04-16T02:01:43;37.57;;;35.27;;
3036;SDS011;1528;52.550;13.408;2023-04-16T02:04:29;35.40;;;33.40;;
3036;SDS011;1528;52.550;13.408;2023-04-16T02:07:15;34.63;;;32.70;;
3036;SDS011;1528;52.550;13.408;2023-04-16T02:10:01;33.17;;;31.33;;
3036;SDS011;1528;52.550;13.408;2023-04-16T02:12:49;33.30;;;31.27;;
3036;SDS011;1528;52.550;13.408;2023-04-16T02:15:34;32.80;;;30.63;;
3036;SDS011;1528;52.550;13.408;2023-04-16T02:18:20;36.20;;;34.10;;
3036;SDS011;1528;52.550;13.408;2023-04-16T02:21:06;32.17;;;30.17;;
3036;SDS011;1528;52.550;13.408;2023-04-16T02:23:51;36.90;;;34.80;;
3036;SDS011;1528;52.550;13.408;2023-04-16T02:26:37;35.00;;;32.77;;
3036;SDS011;1528;52.550;13.408;2023-04-16T02:29:24;31.50;;;29.63;;
3036;SDS011;1528;52.550;13.408;2023-04-16T02:32:09;33.77;;;31.80;;
3036;SDS011;1528;52.550;13.408;2023-04-16T02:34:55;37.10;;;35.10;;
3036;SDS011;1528;52.550;13.408;2023-04-16T02:37:40;35.23;;;33.13;;
3036;SDS011;1528;52.550;13.408;2023-04-16T02:40:26;34.37;;;32.37;;
3036;SDS011;1528;52.550;13.408;2023-04-16T02:43:12;38.80;;;36.63;;
3036;SDS011;1528;52.550;13.408;2023-04-16T02:45:59;37.37;;;35.07;;
3036;SDS011;1528;52.550;13.408;2023-04-16T02:48:45;36.53;;;34.17;;
3036;SDS011;1528;52.550;13.408;2023-04-16T02:51:30;35.17;;;32.83;;
3036;SDS011;1528;52.550;13.408;2023-04-16T02:54:16;38.17;;;35.87;;
3036;SDS011;1528;52.550;13.408;2023-04-16T02:57:02;35.40;;;33.10;;
3036;SDS011;1528;52.550;13.408;2023-04-16T02:59:48;39.07;;;36.47;;
3036;SDS011;1528;52.550;13.408;2023-04-16T03:02:38;41.67;;;38.87;;
3036;SDS011;1528;52.550;13.408;2023-04-16T03:05:25;40.70;;;38.30;;
3036;SDS011;1528;52.550;13.408;2023-04-16T03:08:10;37.93;;;35.27;;
3036;SDS011;1528;52.550;13.408;2023-04-16T03:10:56;40.00;;;37.40;;
3036;SDS011;1528;52.550;13.408;2023-04-16T03:13:42;36.57;;;34.17;;
3036;SDS011;1528;52.550;13.408;2023-04-16T03:16:28;40.47;;;38.17;;
3036;SDS011;1528;52.550;13.408;2023-04-16T03:19:15;34.77;;;32.27;;
3036;SDS011;1528;52.550;13.408;2023-04-16T03:22:00;41.23;;;38.83;;
3036;SDS011;1528;52.550;13.408;2023-04-16T03:24:46;37.53;;;35.20;;
3036;SDS011;1528;52.550;13.408;2023-04-16T03:27:31;37.37;;;35.00;;
3036;SDS011;1528;52.550;13.408;2023-04-16T03:30:17;37.27;;;35.00;;
3036;SDS011;1528;52.550;13.408;2023-04-16T03:33:03;38.10;;;35.20;;
3036;SDS011;1528;52.550;13.408;2023-04-16T03:35:56;36.33;;;33.93;;
3036;SDS011;1528;52.550;13.408;2023-04-16T03:38:43;34.67;;;32.47;;
3036;SDS011;1528;52.550;13.408;2023-04-16T03:41:28;30.27;;;28.27;;
3036;SDS011;1528;52.550;13.408;2023-04-16T03:44:14;32.87;;;30.40;;
3036;SDS011;1528;52.550;13.408;2023-04-16T03:46:59;34.93;;;32.03;;
3036;SDS011;1528;52.550;13.408;2023-04-16T03:49:45;35.33;;;32.83;;
3036;SDS011;1528;52.550;13.408;2023-04-16T03:52:32;33.10;;;31.10;;
3036;SDS011;1528;52.550;13.408;2023-04-16T03:55:18;30.00;;;27.97;;
3036;SDS011;1528;52.550;13.408;2023-04-16T03:58:04;31.57;;;29.37;;
3036;SDS011;1528;52.550;13.408;2023-04-16T04:00:51;29.90;;;27.90;;
3036;SDS011;1528;52.550;13.408;2023-04-16T04:03:37;31.33;;;29.27;;
3036;SDS011;1528;52.550;13.408;2023-04-16T04:06:23;32.80;;;30.33;;
3036;SDS011;1528;52.550;13.408;2023-04-16T04:09:10;30.80;;;28.50;;
3036;SDS011;1528;52.550;13.408;2023-04-16T04:11:55;31.47;;;29.27;;
3036;SDS011;1528;52.550;13.408;2023-04-16T04:14:41;33.70;;;31.43;;
3036;SDS011;1528;52.550;13.408;2023-04-16T04:17:27;36.37;;;34.17;;
3036;SDS011;1528;52.550;13.408;2023-04-16T04:20:12;35.90;;;33.30;;
3036;SDS011;1528;52.550;13.408;2023-04-16T04:22:58;36.40;;;34.03;;
3036;SDS011;1528;52.550;13.408;2023-04-16T04:25:45;34.10;;;31.80;;
3036;SDS011;1528;52.550;13.408;2023-04-16T04:28:31;33.23;;;31.00;;
3036;SDS011;1528;52.550;13.408;2023-04-16T04:31:17;33.40;;;31.00;;
3036;SDS011;1528;52.550;13.408;2023-04-16T04:34:02;32.30;;;30.00;;
3036;SDS011;1528;52.550;13.408;2023-04-16T04:36:48;34.83;;;32.43;;
3036;SDS011;1528;52.550;13.408;2023-04-16T04:39:33;36.53;;;33.83;;
3036;SDS011;1528;52.550;13.408;2023-04-16T04:42:20;35.47;;;32.97;;
3036;SDS011;1528;52.550;13.408;2023-04-16T04:45:07;34.20;;;31.80;;
3036;SDS011;1528;52.550;13.408;2023-04-16T04:47:53;36.50;;;33.90;;
3036;SDS011;1528;52.550;13.408;2023-04-16T04:50:39;37.27;;;34.70;;
3036;SDS011;1528;52.550;13.408;2023-04-16T04:53:25;35.80;;;33.20;;
3036;SDS011;1528;52.550;13.408;2023-04-16T04:56:10;36.40;;;33.40;;
3036;SDS011;1528;52.550;13.408;2023-04-16T04:58:57;34.60;;;32.00;;
3036;SDS011;1528;52.550;13.408;2023-04-16T05:01:43;38.40;;;35.80;;
3036;SDS011;1528;52.550;13.408;2023-04-16T05:04:29;37.20;;;34.23;;
3036;SDS011;1528;52.550;13.408;2023-04-16T05:07:14;31.77;;;29.37;;
3036;SDS011;1528;52.550;13.408;2023-04-16T05:10:00;36.07;;;33.27;;
3036;SDS011;1528;52.550;13.408;2023-04-16T05:12:46;38.40;;;35.80;;
3036;SDS011;1528;52.550;13.408;2023-04-16T05:15:33;39.37;;;36.47;;
3036;SDS011;1528;52.550;13.408;2023-04-16T05:18:18;37.60;;;34.80;;
3036;SDS011;1528;52.550;13.408;2023-04-16T05:21:04;36.20;;;33.60;;
3036;SDS011;1528;52.550;13.408;2023-04-16T05:23:50;37.57;;;34.67;;
3036;SDS011;1528;52.550;13.408;2023-04-16T05:26:35;37.23;;;34.73;;
3036;SDS011;1528;52.550;13.408;2023-04-16T05:29:21;34.17;;;31.77;;
3036;SDS011;1528;52.550;13.408;2023-04-16T05:32:08;34.63;;;32.33;;
3036;SDS011;1528;52.550;13.408;2023-04-16T05:34:54;35.17;;;32.67;;
3036;SDS011;1528;52.550;13.408;2023-04-16T05:37:39;33.70;;;31.20;;
3036;SDS011;1528;52.550;13.408;2023-04-16T05:40:24;31.47;;;28.93;;
3036;SDS011;1528;52.550;13.408;2023-04-16T05:43:11;34.37;;;31.67;;
3036;SDS011;1528;52.550;13.408;2023-04-16T05:45:56;32.87;;;30.53;;
3036;SDS011;1528;52.550;13.408;2023-04-16T05:48:43;33.30;;;30.87;;
3036;SDS011;1528;52.550;13.408;2023-04-16T05:51:29;34.37;;;32.17;;
3036;SDS011;1528;52.550;13.408;2023-04-16T05:54:14;31.67;;;29.43;;
3036;SDS011;1528;52.550;13.408;2023-04-16T05:57:00;33.73;;;31.53;;
3036;SDS011;1528;52.550;13.408;2023-04-16T05:59:46;33.27;;;30.80;;
3036;SDS011;1528;52.550;13.408;2023-04-16T06:02:31;34.33;;;32.13;;
3036;SDS011;1528;52.550;13.408;2023-04-16T06:05:19;31.20;;;29.20;;
3036;SDS011;1528;52.550;13.408;2023-04-16T06:08:04;34.40;;;32.00;;
3036;SDS011;1528;52.550;13.408;2023-04-16T06:10:50;38.80;;;36.07;;
3036;SDS011;1528;52.550;13.408;2023-04-16T06:13:36;38.97;;;36.17;;
3036;SDS011;1528;52.550;13.408;2023-04-16T06:16:23;35.70;;;33.10;;
3036;SDS011;1528;52.550;13.408;2023-04-16T06:19:08;32.23;;;30.00;;
3036;SDS011;1528;52.550;13.408;2023-04-16T06:21:56;32.60;;;30.40;;
3036;SDS011;1528;52.550;13.408;2023-04-16T06:24:41;31.57;;;29.27;;
3036;SDS011;1528;52.550;13.408;2023-04-16T06:27:27;32.33;;;30.23;;
3036;SDS011;1528;52.550;13.408;2023-04-16T06:30:13;32.70;;;30.50;;
3036;SDS011;1528;52.550;13.408;2023-04-16T06:32:59;31.03;;;28.97;;
3036;SDS011;1528;52.550;13.408;2023-04-16T06:35:45;32.23;;;29.97;;
3036;SDS011;1528;52.550;13.408;2023-04-16T06:38:32;33.23;;;30.97;;
3036;SDS011;1528;52.550;13.408;2023-04-16T06:41:18;32.90;;;30.53;;
3036;SDS011;1528;52.550;13.408;2023-04-16T06:44:05;33.47;;;31.10;;
3036;SDS011;1528;52.550;13.408;2023-04-16T06:46:51;33.43;;;31.43;;
3036;SDS011;1528;52.550;13.408;2023-04-16T06:49:37;31.60;;;29.50;;
3036;SDS011;1528;52.550;13.408;2023-04-16T06:52:22;32.87;;;30.67;;
3036;SDS011;1528;52.550;13.408;2023-04-16T06:55:09;30.80;;;28.83;;
3036;SDS011;1528;52.550;13.408;2023-04-16T06:57:55;32.07;;;29.70;;
3036;SDS011;1528;52.550;13.408;2023-04-16T07:00:41;33.90;;;31.60;;
3036;SDS011;1528;52.550;13.408;2023-04-16T07:03:26;33.30;;;31.10;;
3036;SDS011;1528;52.550;13.408;2023-04-16T07:06:12;32.80;;;30.00;;
3036;SDS011;1528;52.550;13.408;2023-04-16T07:08:57;33.90;;;31.70;;
3036;SDS011;1528;52.550;13.408;2023-04-16T07:11:45;32.80;;;30.40;;
3036;SDS011;1528;52.550;13.408;2023-04-16T07:14:30;32.80;;;30.20;;
3036;SDS011;1528;52.550;13.408;2023-04-16T07:17:16;32.77;;;30.20;;
3036;SDS011;1528;52.550;13.408;2023-04-16T07:20:02;32.77;;;30.50;;
3036;SDS011;1528;52.550;13.408;2023-04-16T07:22:48;31.37;;;28.93;;
3036;SDS011;1528;52.550;13.408;2023-04-16T07:25:33;33.43;;;31.20;;
3036;SDS011;1528;52.550;13.408;2023-04-16T07:28:20;34.17;;;31.67;;
3036;SDS011;1528;52.550;13.408;2023-04-16T07:31:08;35.30;;;33.03;;
3036;SDS011;1528;52.550;13.408;2023-04-16T07:33:54;36.50;;;34.10;;
3036;SDS011;1528;52.550;13.408;2023-04-16T07:36:39;36.03;;;33.70;;
3036;SDS011;1528;52.550;13.408;2023-04-16T07:39:24;34.20;;;31.60;;
3036;SDS011;1528;52.550;13.408;2023-04-16T07:42:10;33.23;;;31.03;;
3036;SDS011;1528;52.550;13.408;2023-04-16T07:44:57;34.37;;;32.30;;
3036;SDS011;1528;52.550;13.408;2023-04-16T07:47:43;32.83;;;30.70;;
3036;SDS011;1528;52.550;13.408;2023-04-16T07:50:28;35.10;;;32.70;;
3036;SDS011;1528;52.550;13.408;2023-04-16T07:53:14;33.17;;;30.90;;
3036;SDS011;1528;52.550;13.408;2023-04-16T07:56:00;34.47;;;32.23;;
3036;SDS011;1528;52.550;13.408;2023-04-16T07:58:45;34.73;;;32.43;;
3036;SDS011;1528;52.550;13.408;2023-04-16T08:01:32;33.07;;;30.67;;
3036;SDS011;1528;52.550;13.408;2023-04-16T08:04:18;33.93;;;31.67;;
3036;SDS011;1528;52.550;13.408;2023-04-16T08:07:07;34.50;;;32.10;;
3036;SDS011;1528;52.550;13.408;2023-04-16T08:09:52;34.80;;;32.50;;
3036;SDS011;1528;52.550;13.408;2023-04-16T08:12:38;35.13;;;32.83;;
3036;SDS011;1528;52.550;13.408;2023-04-16T08:15:24;36.63;;;34.23;;
3036;SDS011;1528;52.550;13.408;2023-04-16T08:18:11;36.23;;;33.80;;
3036;SDS011;1528;52.550;13.408;2023-04-16T08:20:58;35.03;;;32.43;;
3036;SDS011;1528;52.550;13.408;2023-04-16T08:23:44;34.17;;;31.87;;
3036;SDS011;1528;52.550;13.408;2023-04-16T08:26:29;38.00;;;35.63;;
3036;SDS011;1528;52.550;13.408;2023-04-16T08:29:15;38.93;;;36.63;;
3036;SDS011;1528;52.550;13.408;2023-04-16T08:32:00;38.37;;;36.00;;
3036;SDS011;1528;52.550;13.408;2023-04-16T08:34:47;36.60;;;34.40;;
3036;SDS011;1528;52.550;13.408;2023-04-16T08:37:33;37.63;;;35.30;;
3036;SDS011;1528;52.550;13.408;2023-04-16T08:40:18;39.67;;;37.47;;
3036;SDS011;1528;52.550;13.408;2023-04-16T08:43:05;36.70;;;34.20;;
3036;SDS011;1528;52.550;13.408;2023-04-16T08:45:54;37.30;;;34.90;;
3036;SDS011;1528;52.550;13.408;2023-04-16T08:48:42;34.03;;;31.80;;
3036;SDS011;1528;52.550;13.408;2023-04-16T08:51:33;34.43;;;31.90;;
3036;SDS011;1528;52.550;13.408;2023-04-16T08:54:27;35.43;;;33.13;;
3036;SDS011;1528;52.550;13.408;2023-04-16T08:57:17;38.37;;;35.97;;
3036;SDS011;1528;52.550;13.408;2023-04-16T09:00:05;35.43;;;33.33;;
3036;SDS011;1528;52.550;13.408;2023-04-16T09:02:53;32.07;;;30.07;;
3036;SDS011;1528;52.550;13.408;2023-04-16T09:05:38;33.63;;;31.43;;
3036;SDS011;1528;52.550;13.408;2023-04-16T09:08:27;34.23;;;32.23;;
3036;SDS011;1528;52.550;13.408;2023-04-16T09:11:14;35.67;;;33.57;;
3036;SDS011;1528;52.550;13.408;2023-04-16T09:14:01;37.53;;;35.20;;
3036;SDS011;1528;52.550;13.408;2023-04-16T09:16:48;36.23;;;34.00;;
3036;SDS011;1528;52.550;13.408;2023-04-16T09:19:37;32.83;;;30.80;;
3036;SDS011;1528;52.550;13.408;2023-04-16T09:22:23;32.60;;;30.70;;
3036;SDS011;1528;52.550;13.408;2023-04-16T09:25:10;30.47;;;28.67;;
3036;SDS011;1528;52.550;13.408;2023-04-16T09:27:57;32.77;;;30.67;;
3036;SDS011;1528;52.550;13.408;2023-04-16T09:30:42;30.73;;;29.00;;
3036;SDS011;1528;52.550;13.408;2023-04-16T09:33:28;31.30;;;29.60;;
3036;SDS011;1528;52.550;13.408;2023-04-16T09:36:15;34.50;;;32.47;;
3036;SDS011;1528;52.550;13.408;2023-04-16T09:39:08;32.70;;;30.90;;
3036;SDS011;1528;52.550;13.408;2023-04-16T09:42:05;33.37;;;31.27;;
3036;SDS011;1528;52.550;13.408;2023-04-16T09:44:51;38.73;;;36.33;;
3036;SDS011;1528;52.550;13.408;2023-04-16T09:47:38;33.40;;;31.40;;
3036;SDS011;1528;52.550;13.408;2023-04-16T09:50:25;34.77;;;32.77;;
3036;SDS011;1528;52.550;13.408;2023-04-16T09:53:12;34.60;;;32.60;;
3036;SDS011;1528;52.550;13.408;2023-04-16T09:55:57;40.03;;;37.43;;
3036;SDS011;1528;52.550;13.408;2023-04-16T09:58:45;32.70;;;30.87;;
3036;SDS011;1528;52.550;13.408;2023-04-16T10:01:30;34.47;;;32.57;;
3036;SDS011;1528;52.550;13.408;2023-04-16T10:04:16;35.97;;;33.77;;
3036;SDS011;1528;52.550;13.408;2023-04-16T10:07:02;34.80;;;32.80;;
3036;SDS011;1528;52.550;13.408;2023-04-16T10:09:48;40.47;;;37.97;;
3036;SDS011;1528;52.550;13.408;2023-04-16T10:12:35;35.70;;;33.20;;
3036;SDS011;1528;52.550;13.408;2023-04-16T10:15:22;35.67;;;33.57;;
3036;SDS011;1528;52.550;13.408;2023-04-16T10:18:07;41.03;;;38.37;;
3036;SDS011;1528;52.550;13.408;2023-04-16T10:20:53;39.60;;;37.00;;
3036;SDS011;1528;52.550;13.408;2023-04-16T10:23:39;37.90;;;35.40;;
3036;SDS011;1528;52.550;13.408;2023-04-16T10:26:26;36.50;;;34.10;;
3036;SDS011;1528;52.550;13.408;2023-04-16T10:29:13;39.60;;;37.17;;
3036;SDS011;1528;52.550;13.408;2023-04-16T10:31:59;38.37;;;36.27;;
3036;SDS011;1528;52.550;13.408;2023-04-16T10:34:47;36.70;;;34.30;;
3036;SDS011;1528;52.550;13.408;2023-04-16T10:37:33;40.07;;;37.57;;
3036;SDS011;1528;52.550;13.408;2023-04-16T10:40:21;40.20;;;37.50;;
3036;SDS011;1528;52.550;13.408;2023-04-16T10:43:08;36.43;;;34.13;;
3036;SDS011;1528;52.550;13.408;2023-04-16T10:49:11;35.07;;;33.03;;
3036;SDS011;1528;52.550;13.408;2023-04-16T10:51:58;34.47;;;32.40;;
3036;SDS011;1528;52.550;13.408;2023-04-16T10:54:46;34.17;;;32.00;;
3036;SDS011;1528;52.550;13.408;2023-04-16T10:57:31;38.13;;;36.07;;
3036;SDS011;1528;52.550;13.408;2023-04-16T11:00:21;33.90;;;31.80;;
3036;SDS011;1528;52.550;13.408;2023-04-16T11:03:06;34.63;;;32.17;;
3036;SDS011;1528;52.550;13.408;2023-04-16T11:05:53;35.03;;;32.93;;
3036;SDS011;1528;52.550;13.408;2023-04-16T11:08:55;31.27;;;29.33;;
3036;SDS011;1528;52.550;13.408;2023-04-16T11:11:41;32.83;;;30.83;;
3036;SDS011;1528;52.550;13.408;2023-04-16T11:14:26;37.43;;;35.47;;
3036;SDS011;1528;52.550;13.408;2023-04-16T11:17:12;32.10;;;30.30;;
3036;SDS011;1528;52.550;13.408;2023-04-16T11:19:58;33.00;;;31.10;;
3036;SDS011;1528;52.550;13.408;2023-04-16T11:22:45;30.17;;;28.27;;
3036;SDS011;1528;52.550;13.408;2023-04-16T11:25:31;35.33;;;33.33;;
3036;SDS011;1528;52.550;13.408;2023-04-16T11:28:17;35.67;;;33.77;;
3036;SDS011;1528;52.550;13.408;2023-04-16T11:31:09;35.60;;;33.60;;
3036;SDS011;1528;52.550;13.408;2023-04-16T11:33:55;35.37;;;33.37;;
3036;SDS011;1528;52.550;13.408;2023-04-16T11:36:42;34.80;;;32.70;;
3036;SDS011;1528;52.550;13.408;2023-04-16T11:39:29;33.03;;;31.13;;
3036;SDS011;1528;52.550;13.408;2023-04-16T11:42:17;34.63;;;32.83;;
3036;SDS011;1528;52.550;13.408;2023-04-16T11:45:06;27.53;;;26.00;;
3036;SDS011;1528;52.550;13.408;2023-04-16T11:47:52;29.83;;;28.33;;
3036;SDS011;1528;52.550;13.408;2023-04-16T11:50:40;29.40;;;27.90;;
3036;SDS011;1528;52.550;13.408;2023-04-16T11:53:26;27.40;;;26.10;;
3036;SDS011;1528;52.550;13.408;2023-04-16T11:56:13;27.57;;;26.27;;
3036;SDS011;1528;52.550;13.408;2023-04-16T11:59:07;28.30;;;26.90;;
3036;SDS011;1528;52.550;13.408;2023-04-16T12:01:53;28.37;;;26.90;;
3036;SDS011;1528;52.550;13.408;2023-04-16T12:04:39;26.33;;;25.00;;
3036;SDS011;1528;52.550;13.408;2023-04-16T12:07:25;28.37;;;26.77;;
3036;SDS011;1528;52.550;13.408;2023-04-16T12:10:10;30.23;;;28.77;;
3036;SDS011;1528;52.550;13.408;2023-04-16T12:13:09;26.43;;;24.90;;
3036;SDS011;1528;52.550;13.408;2023-04-16T12:15:56;24.27;;;22.97;;
3036;SDS011;1528;52.550;13.408;2023-04-16T12:18:44;27.07;;;25.70;;
3036;SDS011;1528;52.550;13.408;2023-04-16T12:21:43;27.00;;;25.60;;
3036;SDS011;1528;52.550;13.408;2023-04-16T12:24:30;24.80;;;23.50;;
3036;SDS011;1528;52.550;13.408;2023-04-16T12:27:16;22.80;;;21.50;;
3036;SDS011;1528;52.550;13.408;2023-04-16T12:30:04;23.73;;;22.43;;
3036;SDS011;1528;52.550;13.408;2023-04-16T12:32:52;24.97;;;23.70;;
3036;SDS011;1528;52.550;13.408;2023-04-16T12:35:56;25.33;;;24.10;;
3036;SDS011;1528;52.550;13.408;2023-04-16T12:38:42;29.50;;;27.90;;
3036;SDS011;1528;52.550;13.408;2023-04-16T12:41:27;25.90;;;24.70;;
3036;SDS011;1528;52.550;13.408;2023-04-16T12:44:15;24.30;;;22.90;;
3036;SDS011;1528;52.550;13.408;2023-04-16T12:47:02;25.30;;;24.00;;
3036;SDS011;1528;52.550;13.408;2023-04-16T12:49:48;22.70;;;21.60;;
3036;SDS011;1528;52.550;13.408;2023-04-16T12:52:33;22.60;;;21.23;;
3036;SDS011;1528;52.550;13.408;2023-04-16T12:55:19;22.67;;;21.40;;
3036;SDS011;1528;52.550;13.408;2023-04-16T12:58:05;29.73;;;27.83;;
3036;SDS011;1528;52.550;13.408;2023-04-16T13:00:52;30.63;;;28.50;;
3036;SDS011;1528;52.550;13.408;2023-04-16T13:03:39;26.83;;;25.23;;
3036;SDS011;1528;52.550;13.408;2023-04-16T13:06:24;26.20;;;24.50;;
3036;SDS011;1528;52.550;13.408;2023-04-16T13:09:10;26.47;;;25.07;;
3036;SDS011;1528;52.550;13.408;2023-04-16T13:11:56;23.67;;;22.47;;
3036;SDS011;1528;52.550;13.408;2023-04-16T13:14:42;26.90;;;25.50;;
3036;SDS011;1528;52.550;13.408;2023-04-16T13:17:27;28.80;;;27.40;;
3036;SDS011;1528;52.550;13.408;2023-04-16T13:20:14;25.60;;;24.50;;
3036;SDS011;1528;52.550;13.408;2023-04-16T13:23:00;28.90;;;27.40;;
3036;SDS011;1528;52.550;13.408;2023-04-16T13:25:47;29.43;;;28.03;;
3036;SDS011;1528;52.550;13.408;2023-04-16T13:28:33;26.30;;;24.90;;
3036;SDS011;1528;52.550;13.408;2023-04-16T13:31:18;25.27;;;24.07;;
3036;SDS011;1528;52.550;13.408;2023-04-16T13:34:04;29.67;;;28.27;;
3036;SDS011;1528;52.550;13.408;2023-04-16T13:36:51;33.37;;;31.87;;
3036;SDS011;1528;52.550;13.408;2023-04-16T13:39:36;25.27;;;24.00;;
3036;SDS011;1528;52.550;13.408;2023-04-16T13:42:22;26.53;;;25.27;;
3036;SDS011;1528;52.550;13.408;2023-04-16T13:45:07;26.60;;;25.23;;
3036;SDS011;1528;52.550;13.408;2023-04-16T13:47:53;29.37;;;28.03;;
3036;SDS011;1528;52.550;13.408;2023-04-16T13:50:39;28.20;;;26.80;;
3036;SDS011;1528;52.550;13.408;2023-04-16T13:53:26;28.87;;;27.47;;
3036;SDS011;1528;52.550;13.408;2023-04-16T13:56:12;29.80;;;28.20;;
3036;SDS011;1528;52.550;13.408;2023-04-16T13:58:58;27.33;;;25.80;;
3036;SDS011;1528;52.550;13.408;2023-04-16T14:01:44;26.30;;;25.10;;
3036;SDS011;1528;52.550;13.408;2023-04-16T14:04:29;25.57;;;24.37;;
3036;SDS011;1528;52.550;13.408;2023-04-16T14:07:15;25.10;;;24.00;;
3036;SDS011;1528;52.550;13.408;2023-04-16T14:10:02;28.07;;;26.87;;
3036;SDS011;1528;52.550;13.408;2023-04-16T14:12:48;28.00;;;26.70;;
3036;SDS011;1528;52.550;13.408;2023-04-16T14:15:34;29.23;;;28.00;;
3036;SDS011;1528;52.550;13.408;2023-04-16T14:18:19;27.40;;;26.30;;
3036;SDS011;1528;52.550;13.408;2023-04-16T14:21:05;29.07;;;27.87;;
3036;SDS011;1528;52.550;13.408;2023-04-16T14:23:50;27.13;;;26.03;;
3036;SDS011;1528;52.550;13.408;2023-04-16T14:26:38;27.83;;;26.53;;
3036;SDS011;1528;52.550;13.408;2023-04-16T14:29:23;26.33;;;24.80;;
3036;SDS011;1528;52.550;13.408;2023-04-16T14:32:09;26.63;;;25.43;;
3036;SDS011;1528;52.550;13.408;2023-04-16T14:34:55;23.87;;;22.77;;
3036;SDS011;1528;52.550;13.408;2023-04-16T14:37:41;27.33;;;26.13;;
3036;SDS011;1528;52.550;13.408;2023-04-16T14:40:26;27.00;;;25.70;;
3036;SDS011;1528;52.550;13.408;2023-04-16T14:43:13;25.77;;;24.43;;
3036;SDS011;1528;52.550;13.408;2023-04-16T14:45:59;24.87;;;23.77;;
3036;SDS011;1528;52.550;13.408;2023-04-16T14:48:46;22.50;;;21.30;;
3036;SDS011;1528;52.550;13.408;2023-04-16T14:51:32;19.93;;;18.73;;
3036;SDS011;1528;52.550;13.408;2023-04-16T14:54:17;19.80;;;18.90;;
3036;SDS011;1528;52.550;13.408;2023-04-16T14:57:03;20.13;;;19.20;;
3036;SDS011;1528;52.550;13.408;2023-04-16T14:59:50;19.33;;;18.40;;
3036;SDS011;1528;52.550;13.408;2023-04-16T15:02:36;22.17;;;20.97;;
3036;SDS011;1528;52.550;13.408;2023-04-16T15:05:21;20.70;;;19.50;;
3036;SDS011;1528;52.550;13.408;2023-04-16T15:08:07;20.70;;;19.80;;
3036;SDS011;1528;52.550;13.408;2023-04-16T15:10:53;20.50;;;19.47;;
3036;SDS011;1528;52.550;13.408;2023-04-16T15:13:38;21.37;;;20.30;;
3036;SDS011;1528;52.550;13.408;2023-04-16T15:16:25;20.90;;;19.83;;
3036;SDS011;1528;52.550;13.408;2023-04-16T15:19:11;19.63;;;18.63;;
3036;SDS011;1528;52.550;13.408;2023-04-16T15:21:56;20.30;;;19.40;;
3036;SDS011;1528;52.550;13.408;2023-04-16T15:24:43;22.53;;;21.33;;
3036;SDS011;1528;52.550;13.408;2023-04-16T15:27:28;21.87;;;20.83;;
3036;SDS011;1528;52.550;13.408;2023-04-16T15:30:14;22.60;;;21.50;;
3036;SDS011;1528;52.550;13.408;2023-04-16T15:33:01;21.43;;;20.40;;
3036;SDS011;1528;52.550;13.408;2023-04-16T15:35:47;22.03;;;21.03;;
3036;SDS011;1528;52.550;13.408;2023-04-16T15:38:34;21.30;;;20.20;;
3036;SDS011;1528;52.550;13.408;2023-04-16T15:41:20;20.50;;;19.50;;
3036;SDS011;1528;52.550;13.408;2023-04-16T15:44:05;21.93;;;20.93;;
3036;SDS011;1528;52.550;13.408;2023-04-16T15:46:51;22.50;;;21.50;;
3036;SDS011;1528;52.550;13.408;2023-04-16T15:49:38;21.87;;;20.77;;
3036;SDS011;1528;52.550;13.408;2023-04-16T15:52:24;22.40;;;21.30;;
3036;SDS011;1528;52.550;13.408;2023-04-16T15:55:09;24.80;;;23.70;;
3036;SDS011;1528;52.550;13.408;2023-04-16T15:57:55;26.93;;;25.63;;
3036;SDS011;1528;52.550;13.408;2023-04-16T16:00:41;22.50;;;21.40;;
3036;SDS011;1528;52.550;13.408;2023-04-16T16:03:29;22.97;;;21.80;;
3036;SDS011;1528;52.550;13.408;2023-04-16T16:06:18;22.90;;;21.73;;
3036;SDS011;1528;52.550;13.408;2023-04-16T16:09:03;23.30;;;22.10;;
3036;SDS011;1528;52.550;13.408;2023-04-16T16:11:49;25.90;;;24.67;;
3036;SDS011;1528;52.550;13.408;2023-04-16T16:14:35;26.10;;;24.83;;
3036;SDS011;1528;52.550;13.408;2023-04-16T16:17:21;22.57;;;21.47;;
3036;SDS011;1528;52.550;13.408;2023-04-16T16:20:07;23.27;;;22.07;;
3036;SDS011;1528;52.550;13.408;2023-04-16T16:22:54;24.53;;;23.33;;
3036;SDS011;1528;52.550;13.408;2023-04-16T16:25:40;21.47;;;20.37;;
3036;SDS011;1528;52.550;13.408;2023-04-16T16:28:26;23.30;;;22.20;;
3036;SDS011;1528;52.550;13.408;2023-04-16T16:31:11;23.83;;;22.50;;